createdAt,value
2023-05-01T00:00:53.972Z,65.84
2023-05-01T00:03:39.581Z,65.88
2023-05-01T00:06:26.203Z,66.15
2023-05-01T00:09:11.913Z,66.48
2023-05-01T00:11:57.439Z,66.65
2023-05-01T00:14:42.965Z,66.69
2023-05-01T00:17:29.135Z,66.58
2023-05-01T00:20:14.798Z,66.52
2023-05-01T00:23:00.142Z,66.94
2023-05-01T00:25:45.578Z,66.92
2023-05-01T00:28:31.378Z,67.12
2023-05-01T00:31:18.511Z,66.93
2023-05-01T00:34:05.192Z,67.10
2023-05-01T00:36:51.502Z,67.08
2023-05-01T00:39:37.166Z,67.08
2023-05-01T00:42:22.650Z,67.03
2023-05-01T00:45:08.950Z,67.09
2023-05-01T00:47:54.433Z,67.36
2023-05-01T00:50:41.094Z,67.44
2023-05-01T00:53:28.342Z,67.34
2023-05-01T00:56:15.069Z,68.17
2023-05-01T00:59:01.251Z,68.25
2023-05-01T01:01:47.383Z,68.09
2023-05-01T01:04:34.537Z,68.27
2023-05-01T01:07:40.063Z,68.34
2023-05-01T01:10:41.014Z,68.10
2023-05-01T01:13:32.487Z,68.73
2023-05-01T01:16:45.413Z,68.43
2023-05-01T01:19:43.081Z,68.45
2023-05-01T01:22:29.922Z,68.81
2023-05-01T01:25:28.130Z,68.91
2023-05-01T01:28:14.012Z,68.71
2023-05-01T01:31:14.693Z,69.11
2023-05-01T01:34:24.926Z,69.14
2023-05-01T01:37:17.555Z,69.21
2023-05-01T01:40:17.309Z,69.02
2023-05-01T01:43:07.761Z,69.37
2023-05-01T01:45:59.496Z,69.45
2023-05-01T01:48:49.023Z,69.97
2023-05-01T01:51:37.983Z,69.48
2023-05-01T01:54:33.085Z,70.03
2023-05-01T01:57:20.975Z,69.86
2023-05-01T02:00:11.182Z,69.93
2023-05-01T02:03:03.714Z,69.98
2023-05-01T02:05:52.272Z,70.01
2023-05-01T02:08:38.434Z,70.20
2023-05-01T02:11:25.222Z,70.35
2023-05-01T02:14:13.407Z,69.98
2023-05-01T02:16:59.800Z,70.14
2023-05-01T02:19:46.653Z,70.33
2023-05-01T02:22:33.685Z,70.26
2023-05-01T02:25:19.292Z,70.50
2023-05-01T02:28:12.278Z,70.27
2023-05-01T02:30:59.168Z,70.18
2023-05-01T02:33:46.587Z,70.34
2023-05-01T02:36:33.589Z,70.45
2023-05-01T02:39:19.098Z,70.20
2023-05-01T02:42:06.292Z,70.09
2023-05-01T02:45:02.486Z,70.77
2023-05-01T02:47:53.002Z,70.28
2023-05-01T02:50:41.133Z,70.53
2023-05-01T02:53:27.122Z,70.13
2023-05-01T02:56:19.530Z,70.67
2023-05-01T02:59:05.164Z,70.78
2023-05-01T03:01:50.574Z,70.33
2023-05-01T03:04:36.097Z,70.88
2023-05-01T03:07:21.626Z,70.60
2023-05-01T03:10:07.961Z,70.39
2023-05-01T03:12:53.261Z,70.54
2023-05-01T03:15:39.175Z,70.66
2023-05-01T03:18:24.919Z,70.52
2023-05-01T03:21:12.648Z,70.48
2023-05-01T03:23:58.231Z,70.62
2023-05-01T03:26:43.715Z,70.50
2023-05-01T03:29:29.415Z,71.15
2023-05-01T03:32:16.507Z,70.74
2023-05-01T03:35:03.869Z,70.69
2023-05-01T03:37:49.707Z,70.60
2023-05-01T03:40:55.463Z,70.90
2023-05-01T03:43:59.766Z,71.09
2023-05-01T03:46:55.804Z,71.04
2023-05-01T03:49:45.392Z,70.91
2023-05-01T03:52:31.212Z,71.24
2023-05-01T03:55:16.853Z,70.94
2023-05-01T03:58:05.077Z,71.23
2023-05-01T04:00:51.114Z,71.39
2023-05-01T04:03:37.532Z,71.57
2023-05-01T04:06:23.616Z,71.65
2023-05-01T04:09:09.099Z,71.59
2023-05-01T04:11:54.559Z,71.51
2023-05-01T04:14:39.959Z,71.44
2023-05-01T04:17:25.970Z,71.69
2023-05-01T04:20:11.395Z,71.38
2023-05-01T04:22:57.678Z,71.46
2023-05-01T04:25:43.200Z,71.97
2023-05-01T04:28:32.681Z,71.94
2023-05-01T04:31:18.999Z,72.38
2023-05-01T04:34:04.932Z,72.25
2023-05-01T04:36:51.895Z,72.18
2023-05-01T04:39:38.157Z,72.13
2023-05-01T04:42:23.873Z,72.04
2023-05-01T04:45:10.321Z,71.92
2023-05-01T04:47:55.802Z,71.17
2023-05-01T04:50:41.024Z,72.16
2023-05-01T04:53:26.939Z,71.65
2023-05-01T04:56:12.558Z,71.66
2023-05-01T04:58:58.705Z,71.61
2023-05-01T05:01:46.126Z,72.55
2023-05-01T05:04:32.035Z,71.98
2023-05-01T05:07:17.409Z,71.69
2023-05-01T05:10:32.088Z,72.02
2023-05-01T05:13:36.487Z,71.92
2023-05-01T05:16:28.887Z,71.32
2023-05-01T05:19:16.333Z,71.53
2023-05-01T05:22:03.221Z,70.86
2023-05-01T05:25:04.437Z,70.61
2023-05-01T05:27:49.953Z,70.17
2023-05-01T05:30:35.518Z,70.07
2023-05-01T05:33:25.016Z,69.42
2023-05-01T05:36:11.436Z,69.60
2023-05-01T05:38:59.784Z,69.39
2023-05-01T05:41:45.303Z,68.20
2023-05-01T05:44:33.046Z,68.08
2023-05-01T05:47:18.877Z,68.08
2023-05-01T05:50:04.532Z,67.12
2023-05-01T05:52:51.643Z,67.06
2023-05-01T05:55:37.578Z,66.71
2023-05-01T05:58:25.316Z,66.36
2023-05-01T06:01:11.694Z,66.22
2023-05-01T06:03:58.407Z,66.10
2023-05-01T06:06:45.817Z,65.15
2023-05-01T06:09:31.267Z,64.48
2023-05-01T06:12:17.010Z,64.65
2023-05-01T06:15:03.516Z,64.30
2023-05-01T06:17:49.849Z,63.27
2023-05-01T06:20:35.434Z,63.71
2023-05-01T06:23:20.815Z,63.04
2023-05-01T06:26:32.993Z,62.26
2023-05-01T06:29:18.514Z,61.90
2023-05-01T06:32:04.403Z,61.20
2023-05-01T06:34:50.693Z,61.22
2023-05-01T06:37:38.587Z,60.82
2023-05-01T06:40:26.189Z,60.40
2023-05-01T06:43:11.591Z,59.82
2023-05-01T06:45:57.554Z,60.17
2023-05-01T06:48:43.917Z,59.77
2023-05-01T06:51:32.287Z,59.80
2023-05-01T06:54:17.974Z,59.56
2023-05-01T06:57:03.256Z,59.53
2023-05-01T06:59:48.525Z,58.84
2023-05-01T07:02:35.248Z,58.65
2023-05-01T07:05:21.088Z,58.33
2023-05-01T07:08:07.173Z,58.45
2023-05-01T07:10:53.974Z,58.55
2023-05-01T07:13:39.739Z,58.71
2023-05-01T07:16:25.487Z,58.46
2023-05-01T07:19:11.972Z,58.18
2023-05-01T07:21:59.947Z,57.67
2023-05-01T07:24:45.573Z,56.74
2023-05-01T07:27:31.754Z,57.06
2023-05-01T07:30:17.020Z,57.33
2023-05-01T07:33:03.064Z,57.16
2023-05-01T07:35:48.799Z,56.75
2023-05-01T07:38:35.030Z,56.70
2023-05-01T07:41:21.788Z,55.71
2023-05-01T07:44:07.258Z,56.04
2023-05-01T07:46:52.534Z,55.83
2023-05-01T07:49:38.676Z,55.35
2023-05-01T07:52:24.159Z,55.16
2023-05-01T07:55:10.312Z,55.48
2023-05-01T07:57:56.118Z,55.44
2023-05-01T08:00:41.679Z,55.21
2023-05-01T08:03:31.086Z,55.39
2023-05-01T08:06:16.675Z,54.09
2023-05-01T08:09:02.095Z,54.19
2023-05-01T08:11:47.824Z,53.91
2023-05-01T08:14:34.991Z,52.92
2023-05-01T08:17:21.148Z,53.73
2023-05-01T08:20:07.993Z,53.84
2023-05-01T08:22:53.291Z,53.58
2023-05-01T08:25:38.729Z,51.73
2023-05-01T08:28:24.494Z,52.26
2023-05-01T08:31:10.438Z,52.01
2023-05-01T08:33:55.847Z,53.92
2023-05-01T08:36:41.676Z,51.85
2023-05-01T08:39:28.772Z,51.88
2023-05-01T08:42:14.604Z,52.74
2023-05-01T08:45:01.681Z,52.05
2023-05-01T08:47:49.523Z,52.05
2023-05-01T08:50:37.047Z,50.85
2023-05-01T08:53:24.176Z,52.36
2023-05-01T08:56:13.758Z,51.85
2023-05-01T08:59:03.331Z,51.88
2023-05-01T09:01:50.449Z,49.88
2023-05-01T09:04:41.106Z,51.15
2023-05-01T09:07:26.995Z,50.93
2023-05-01T09:10:14.156Z,50.91
2023-05-01T09:13:07.060Z,51.34
2023-05-01T09:15:52.730Z,52.13
2023-05-01T09:18:41.054Z,51.95
2023-05-01T09:21:29.179Z,51.28
2023-05-01T09:24:14.535Z,51.60
2023-05-01T09:26:59.973Z,50.32
2023-05-01T09:29:47.978Z,50.87
2023-05-01T09:32:34.342Z,50.54
2023-05-01T09:35:19.986Z,50.35
2023-05-01T09:38:05.521Z,51.13
2023-05-01T09:40:53.927Z,50.50
2023-05-01T09:43:39.819Z,50.11
2023-05-01T09:46:26.735Z,50.73
2023-05-01T09:49:12.943Z,50.45
2023-05-01T09:52:11.498Z,49.19
2023-05-01T09:55:13.945Z,49.43
2023-05-01T09:57:59.494Z,49.71
2023-05-01T10:00:49.642Z,50.11
2023-05-01T10:03:35.314Z,49.89
2023-05-01T10:06:28.711Z,48.86
2023-05-01T10:09:27.990Z,48.07
2023-05-01T10:12:24.236Z,48.96
2023-05-01T10:15:23.786Z,46.16
2023-05-01T10:18:12.104Z,48.80
2023-05-01T10:20:57.973Z,48.53
2023-05-01T10:23:43.727Z,48.71
2023-05-01T10:26:29.147Z,48.86
2023-05-01T10:29:15.318Z,48.28
2023-05-01T10:32:06.975Z,48.67
2023-05-01T10:34:58.030Z,48.52
2023-05-01T10:37:49.181Z,47.89
2023-05-01T10:40:41.252Z,46.64
2023-05-01T10:43:31.278Z,48.82
2023-05-01T10:46:19.003Z,48.47
2023-05-01T10:49:04.976Z,48.23
2023-05-01T10:52:02.574Z,48.08
2023-05-01T10:54:48.054Z,47.42
2023-05-01T10:57:46.425Z,46.64
2023-05-01T11:00:34.232Z,47.60
2023-05-01T11:03:23.129Z,47.31
2023-05-01T11:06:08.836Z,47.11
2023-05-01T11:08:55.065Z,47.65
2023-05-01T11:11:40.491Z,47.31
2023-05-01T11:14:26.032Z,46.51
2023-05-01T11:17:11.457Z,47.20
2023-05-01T11:19:56.860Z,47.06
2023-05-01T11:22:48.554Z,46.70
2023-05-01T11:25:34.226Z,46.83
2023-05-01T11:28:21.561Z,47.12
2023-05-01T11:31:07.171Z,44.99
2023-05-01T11:33:55.848Z,46.10
2023-05-01T11:36:51.921Z,45.61
2023-05-01T11:39:37.836Z,46.57
2023-05-01T11:42:23.123Z,46.38
2023-05-01T11:45:12.563Z,46.38
2023-05-01T11:48:00.563Z,46.10
2023-05-01T11:50:48.228Z,46.25
2023-05-01T11:53:33.530Z,46.08
2023-05-01T11:56:27.058Z,45.96
2023-05-01T11:59:17.997Z,45.68
2023-05-01T12:02:03.594Z,46.07
2023-05-01T12:04:49.516Z,46.42
2023-05-01T12:07:37.574Z,45.73
2023-05-01T12:10:23.471Z,45.91
2023-05-01T12:13:10.836Z,45.50
2023-05-01T12:15:56.964Z,45.58
2023-05-01T12:18:43.260Z,45.87
2023-05-01T12:21:28.765Z,45.85
2023-05-01T12:24:16.974Z,45.69
2023-05-01T12:27:03.654Z,45.47
2023-05-01T12:29:49.621Z,45.37
2023-05-01T12:32:35.404Z,44.77
2023-05-01T12:35:21.386Z,45.90
2023-05-01T12:38:21.298Z,43.54
2023-05-01T12:41:09.518Z,43.51
2023-05-01T12:43:54.854Z,45.46
2023-05-01T12:46:40.337Z,45.51
2023-05-01T12:49:27.320Z,44.94
2023-05-01T12:52:12.961Z,44.95
2023-05-01T12:55:06.305Z,44.71
2023-05-01T12:57:53.867Z,44.50
2023-05-01T13:00:53.089Z,40.67
2023-05-01T13:03:43.370Z,41.78
2023-05-01T13:06:36.341Z,43.98
2023-05-01T13:09:32.813Z,44.40
2023-05-01T13:12:18.658Z,44.88
2023-05-01T13:15:04.543Z,45.06
2023-05-01T13:17:50.653Z,44.53
2023-05-01T13:20:39.063Z,44.86
2023-05-01T13:23:24.479Z,44.37
2023-05-01T13:26:13.116Z,44.51
2023-05-01T13:29:00.157Z,44.58
2023-05-01T13:31:46.129Z,44.46
2023-05-01T13:34:33.657Z,44.84
2023-05-01T13:37:19.261Z,44.83
2023-05-01T13:40:05.296Z,44.57
2023-05-01T13:42:53.246Z,44.81
2023-05-01T13:45:38.644Z,44.42
2023-05-01T13:48:24.855Z,44.34
2023-05-01T13:51:12.873Z,44.35
2023-05-01T13:53:58.586Z,44.66
2023-05-01T13:56:44.049Z,44.17
2023-05-01T13:59:40.459Z,43.79
2023-05-01T14:02:30.036Z,43.80
2023-05-01T14:05:16.332Z,44.44
2023-05-01T14:08:02.306Z,43.60
2023-05-01T14:10:48.473Z,43.93
2023-05-01T14:13:36.218Z,43.79
2023-05-01T14:16:27.209Z,44.01
2023-05-01T14:19:16.150Z,44.09
2023-05-01T14:22:01.616Z,44.18
2023-05-01T14:24:47.043Z,44.12
2023-05-01T14:27:33.542Z,44.04
2023-05-01T14:30:33.760Z,43.25
2023-05-01T14:33:19.665Z,44.23
2023-05-01T14:36:05.323Z,44.26
2023-05-01T14:38:51.808Z,44.28
2023-05-01T14:41:42.323Z,44.25
2023-05-01T14:44:30.511Z,44.61
2023-05-01T14:47:21.759Z,44.49
2023-05-01T14:50:07.720Z,44.52
2023-05-01T14:52:57.823Z,44.73
2023-05-01T14:55:43.677Z,44.69
2023-05-01T14:58:29.421Z,44.66
2023-05-01T15:01:15.222Z,44.78
2023-05-01T15:04:03.426Z,45.30
2023-05-01T15:06:50.182Z,45.43
2023-05-01T15:09:35.781Z,45.39
2023-05-01T15:12:21.335Z,45.41
2023-05-01T15:15:07.336Z,45.35
2023-05-01T15:17:53.000Z,45.54
2023-05-01T15:20:38.193Z,45.76
2023-05-01T15:23:25.116Z,45.43
2023-05-01T15:26:11.068Z,45.30
2023-05-01T15:28:56.466Z,45.53
2023-05-01T15:31:42.399Z,46.12
2023-05-01T15:34:28.757Z,45.72
2023-05-01T15:37:14.377Z,46.23
2023-05-01T15:40:00.155Z,45.93
2023-05-01T15:42:48.083Z,46.28
2023-05-01T15:45:33.745Z,46.50
2023-05-01T15:48:19.552Z,46.53
2023-05-01T15:51:05.043Z,46.46
2023-05-01T15:53:50.447Z,46.74
2023-05-01T15:56:37.311Z,46.47
2023-05-01T15:59:22.874Z,46.64
2023-05-01T16:02:08.955Z,47.11
2023-05-01T16:04:54.488Z,47.36
2023-05-01T16:07:40.360Z,47.31
2023-05-01T16:10:25.853Z,47.28
2023-05-01T16:13:11.371Z,46.91
2023-05-01T16:15:57.175Z,47.43
2023-05-01T16:18:42.938Z,47.15
2023-05-01T16:21:28.778Z,47.47
2023-05-01T16:24:14.926Z,47.33
2023-05-01T16:27:00.970Z,47.53
2023-05-01T16:29:46.653Z,47.68
2023-05-01T16:32:32.192Z,47.49
2023-05-01T16:35:18.439Z,47.71
2023-05-01T16:38:05.190Z,47.77
2023-05-01T16:40:50.710Z,48.05
2023-05-01T16:43:36.243Z,48.16
2023-05-01T16:46:22.182Z,48.33
2023-05-01T16:49:11.442Z,48.44
2023-05-01T16:51:58.304Z,48.53
2023-05-01T16:54:44.245Z,48.52
2023-05-01T16:57:29.566Z,48.71
2023-05-01T17:00:16.471Z,48.87
2023-05-01T17:03:02.258Z,48.73
2023-05-01T17:05:47.916Z,48.92
2023-05-01T17:08:33.499Z,48.88
2023-05-01T17:11:19.060Z,48.66
2023-05-01T17:14:04.631Z,49.26
2023-05-01T17:16:50.598Z,48.89
2023-05-01T17:19:39.003Z,49.17
2023-05-01T17:22:25.492Z,49.39
2023-05-01T17:25:12.355Z,49.49
2023-05-01T17:27:59.166Z,49.46
2023-05-01T17:30:44.876Z,49.47
2023-05-01T17:33:31.137Z,49.64
2023-05-01T17:36:16.836Z,50.30
2023-05-01T17:39:02.339Z,50.78
2023-05-01T17:41:49.415Z,51.73
2023-05-01T17:44:35.279Z,52.28
2023-05-01T17:47:21.666Z,52.96
2023-05-01T17:50:13.060Z,53.50
2023-05-01T17:52:58.978Z,53.73
2023-05-01T17:55:44.368Z,53.72
2023-05-01T17:58:29.853Z,53.77
2023-05-01T18:01:15.642Z,53.63
2023-05-01T18:04:01.850Z,53.63
2023-05-01T18:06:47.403Z,54.23
2023-05-01T18:09:33.160Z,54.62
2023-05-01T18:12:19.138Z,54.90
2023-05-01T18:15:04.633Z,55.21
2023-05-01T18:17:50.740Z,55.54
2023-05-01T18:20:36.687Z,55.29
2023-05-01T18:23:21.934Z,55.66
2023-05-01T18:26:08.261Z,56.04
2023-05-01T18:28:54.390Z,56.57
2023-05-01T18:31:40.184Z,56.66
2023-05-01T18:34:25.694Z,57.21
2023-05-01T18:37:10.951Z,56.50
2023-05-01T18:39:56.856Z,56.97
2023-05-01T18:42:43.594Z,57.07
2023-05-01T18:45:28.989Z,57.40
2023-05-01T18:48:14.599Z,57.92
2023-05-01T18:51:08.398Z,58.50
2023-05-01T18:53:54.764Z,58.27
2023-05-01T18:56:40.062Z,58.88
2023-05-01T18:59:30.852Z,58.53
2023-05-01T19:02:16.423Z,58.52
2023-05-01T19:05:02.245Z,59.50
2023-05-01T19:07:48.366Z,59.19
2023-05-01T19:10:35.463Z,59.44
2023-05-01T19:13:23.556Z,58.93
2023-05-01T19:16:09.133Z,59.36
2023-05-01T19:18:54.976Z,58.99
2023-05-01T19:21:40.247Z,59.39
2023-05-01T19:24:25.754Z,59.73
2023-05-01T19:27:11.708Z,60.07
2023-05-01T19:30:00.772Z,59.74
2023-05-01T19:32:47.457Z,60.38
2023-05-01T19:35:32.823Z,60.28
2023-05-01T19:38:18.417Z,60.36
2023-05-01T19:41:04.093Z,60.27
2023-05-01T19:43:49.367Z,60.63
2023-05-01T19:46:34.871Z,60.42
2023-05-01T19:49:20.297Z,60.76
2023-05-01T19:52:06.378Z,60.89
2023-05-01T19:54:52.301Z,60.69
2023-05-01T19:57:37.652Z,60.83
2023-05-01T20:00:23.121Z,61.02
2023-05-01T20:03:09.497Z,60.20
2023-05-01T20:05:55.666Z,60.64
2023-05-01T20:08:41.883Z,61.78
2023-05-01T20:11:27.771Z,61.23
2023-05-01T20:14:13.654Z,61.21
2023-05-01T20:16:59.065Z,60.90
2023-05-01T20:19:44.993Z,61.40
2023-05-01T20:22:30.387Z,60.80
2023-05-01T20:25:15.782Z,61.23
2023-05-01T20:28:03.390Z,61.58
2023-05-01T20:30:49.176Z,61.18
2023-05-01T20:33:34.930Z,61.70
2023-05-01T20:36:20.554Z,61.84
2023-05-01T20:39:06.112Z,61.44
2023-05-01T20:41:51.789Z,61.91
2023-05-01T20:44:37.311Z,62.26
2023-05-01T20:47:23.200Z,61.91
2023-05-01T20:50:09.212Z,62.35
2023-05-01T20:52:56.326Z,62.43
2023-05-01T20:55:41.975Z,62.56
2023-05-01T20:58:27.702Z,62.82
2023-05-01T21:01:13.087Z,62.78
2023-05-01T21:04:01.575Z,62.62
2023-05-01T21:06:47.567Z,62.81
2023-05-01T21:09:33.628Z,62.98
2023-05-01T21:12:19.323Z,62.93
2023-05-01T21:15:05.623Z,62.89
2023-05-01T21:17:51.119Z,63.46
2023-05-01T21:20:36.570Z,63.55
2023-05-01T21:23:26.301Z,63.03
2023-05-01T21:26:14.070Z,63.42
2023-05-01T21:28:59.573Z,63.85
2023-05-01T21:31:45.404Z,63.79
2023-05-01T21:34:31.197Z,63.82
2023-05-01T21:37:18.695Z,63.37
2023-05-01T21:40:09.098Z,63.80
2023-05-01T21:42:55.213Z,63.76
2023-05-01T21:45:44.449Z,63.92
2023-05-01T21:48:34.327Z,64.39
2023-05-01T21:51:28.549Z,64.54
2023-05-01T21:54:18.359Z,64.54
2023-05-01T21:57:07.712Z,64.59
2023-05-01T21:59:56.670Z,64.67
2023-05-01T22:02:44.822Z,64.83
2023-05-01T22:05:32.060Z,65.03
2023-05-01T22:08:17.648Z,65.46
2023-05-01T22:11:04.129Z,65.21
2023-05-01T22:13:50.450Z,65.19
2023-05-01T22:16:35.808Z,65.10
2023-05-01T22:19:20.996Z,64.83
2023-05-01T22:22:06.474Z,65.03
2023-05-01T22:24:51.851Z,65.12
2023-05-01T22:27:37.578Z,64.81
2023-05-01T22:30:23.201Z,65.22
2023-05-01T22:33:08.977Z,65.42
2023-05-01T22:35:55.054Z,65.32
2023-05-01T22:38:40.659Z,65.35
2023-05-01T22:41:26.818Z,65.34
2023-05-01T22:44:12.317Z,65.55
2023-05-01T22:46:59.514Z,65.28
2023-05-01T22:49:44.972Z,65.33
2023-05-01T22:52:30.713Z,65.92
2023-05-01T22:55:16.516Z,66.04
2023-05-01T22:58:02.294Z,65.60
2023-05-01T23:00:47.946Z,65.86
2023-05-01T23:03:35.696Z,66.29
2023-05-01T23:06:22.705Z,66.45
2023-05-01T23:09:08.528Z,66.52
2023-05-01T23:11:54.239Z,66.27
2023-05-01T23:14:45.273Z,65.79
2023-05-01T23:17:34.693Z,67.31
2023-05-01T23:20:22.853Z,66.10
2023-05-01T23:23:13.848Z,65.83
2023-05-01T23:25:59.399Z,66.01
2023-05-01T23:28:45.343Z,66.83
2023-05-01T23:31:30.873Z,66.17
2023-05-01T23:34:17.508Z,66.08
2023-05-01T23:37:03.568Z,66.05
2023-05-01T23:39:49.405Z,66.37
2023-05-01T23:42:36.968Z,66.15
2023-05-01T23:45:22.603Z,66.46
2023-05-01T23:48:08.001Z,66.28
2023-05-01T23:50:53.674Z,66.37
2023-05-01T23:53:39.116Z,66.44
2023-05-01T23:56:24.428Z,66.47
2023-05-01T23:59:09.979Z,66.32
